createdAt,value
2018-07-06T00:00:07.097Z,4.60
2018-07-06T00:01:07.057Z,6.10
2018-07-06T00:02:07.015Z,3.20
2018-07-06T00:03:06.983Z,3.90
2018-07-06T00:04:06.942Z,3.50
2018-07-06T00:05:06.891Z,5.20
2018-07-06T00:06:06.852Z,3.50
2018-07-06T00:07:06.810Z,5.90
2018-07-06T00:08:06.771Z,3.60
2018-07-06T00:09:06.730Z,4.00
2018-07-06T00:10:06.690Z,3.80
2018-07-06T00:11:06.742Z,3.50
2018-07-06T00:12:06.611Z,4.10
2018-07-06T00:13:06.566Z,3.60
2018-07-06T00:14:06.527Z,4.30
2018-07-06T00:15:06.487Z,4.30
2018-07-06T00:16:06.448Z,5.50
2018-07-06T00:17:06.406Z,3.50
2018-07-06T00:18:06.366Z,3.20
2018-07-06T00:19:06.325Z,3.60
2018-07-06T00:20:06.283Z,4.30
2018-07-06T00:21:06.242Z,4.70
2018-07-06T00:22:06.203Z,3.50
2018-07-06T00:23:06.165Z,3.40
2018-07-06T00:24:06.133Z,3.50
2018-07-06T00:25:06.081Z,3.70
2018-07-06T00:26:06.042Z,4.40
2018-07-06T00:27:06.023Z,3.20
2018-07-06T00:28:05.959Z,3.60
2018-07-06T00:29:05.917Z,3.60
2018-07-06T00:30:05.881Z,4.20
2018-07-06T00:31:05.836Z,4.80
2018-07-06T00:32:05.795Z,3.90
2018-07-06T00:33:05.757Z,3.90
2018-07-06T00:34:05.718Z,4.00
2018-07-06T00:35:05.675Z,3.80
2018-07-06T00:36:05.634Z,3.70
2018-07-06T00:37:05.593Z,3.60
2018-07-06T00:38:05.551Z,3.80
2018-07-06T00:39:05.511Z,4.70
2018-07-06T00:40:05.470Z,5.10
2018-07-06T00:41:05.431Z,5.00
2018-07-06T00:42:05.388Z,3.60
2018-07-06T00:43:05.348Z,4.00
2018-07-06T00:44:05.306Z,4.20
2018-07-06T00:45:05.271Z,3.80
2018-07-06T00:46:05.227Z,4.30
2018-07-06T00:47:05.184Z,3.90
2018-07-06T00:48:05.155Z,3.70
2018-07-06T00:49:05.104Z,3.80
2018-07-06T00:50:05.065Z,4.00
2018-07-06T00:51:05.022Z,4.60
2018-07-06T00:52:04.987Z,4.10
2018-07-06T00:53:04.949Z,3.90
2018-07-06T00:54:04.904Z,4.10
2018-07-06T00:55:04.857Z,4.20
2018-07-06T00:56:04.818Z,5.50
2018-07-06T00:57:04.801Z,3.50
2018-07-06T00:58:04.738Z,4.30
2018-07-06T00:59:04.704Z,3.80
2018-07-06T01:00:04.662Z,3.90
2018-07-06T01:01:04.620Z,4.20
2018-07-06T01:02:04.572Z,4.80
2018-07-06T01:03:04.532Z,4.00
2018-07-06T01:04:04.497Z,3.70
2018-07-06T01:05:04.455Z,4.30
2018-07-06T01:06:04.412Z,3.80
2018-07-06T01:07:04.371Z,4.50
2018-07-06T01:08:04.328Z,4.10
2018-07-06T01:09:04.288Z,3.90
2018-07-06T01:10:04.302Z,3.80
2018-07-06T01:11:04.208Z,4.00
2018-07-06T01:12:04.164Z,3.80
2018-07-06T01:13:04.122Z,4.20
2018-07-06T01:14:04.085Z,6.50
2018-07-06T01:15:04.048Z,4.20
2018-07-06T01:16:04.011Z,4.80
2018-07-06T01:17:03.966Z,4.00
2018-07-06T01:18:03.925Z,3.60
2018-07-06T01:19:03.884Z,3.90
2018-07-06T01:20:03.837Z,4.20
2018-07-06T01:21:03.800Z,4.00
2018-07-06T01:22:03.756Z,6.20
2018-07-06T01:23:03.716Z,6.40
2018-07-06T01:24:03.677Z,4.90
2018-07-06T01:25:03.639Z,4.90
2018-07-06T01:26:03.594Z,4.20
2018-07-06T01:27:03.553Z,3.90
2018-07-06T01:28:03.511Z,4.40
2018-07-06T01:29:03.473Z,3.80
2018-07-06T01:30:03.432Z,4.30
2018-07-06T01:31:03.391Z,5.20
2018-07-06T01:32:03.346Z,5.80
2018-07-06T01:33:03.308Z,5.00
2018-07-06T01:34:03.262Z,4.90
2018-07-06T01:35:03.224Z,4.50
2018-07-06T01:36:03.180Z,4.40
2018-07-06T01:37:03.143Z,4.70
2018-07-06T01:38:03.099Z,4.30
2018-07-06T01:39:03.056Z,7.10
2018-07-06T01:40:03.023Z,5.10
2018-07-06T01:41:02.977Z,4.40
2018-07-06T01:42:02.937Z,4.80
2018-07-06T01:43:02.895Z,5.50
2018-07-06T01:44:02.857Z,4.70
2018-07-06T01:45:02.813Z,4.90
2018-07-06T01:46:02.772Z,5.20
2018-07-06T01:47:02.730Z,5.00
2018-07-06T01:48:02.688Z,4.80
2018-07-06T01:49:02.647Z,5.70
2018-07-06T01:50:02.606Z,5.30
2018-07-06T01:51:02.567Z,5.00
2018-07-06T01:52:02.524Z,5.30
2018-07-06T01:53:02.487Z,5.10
2018-07-06T01:54:02.444Z,4.70
2018-07-06T01:55:02.402Z,5.30
2018-07-06T01:56:02.362Z,5.90
2018-07-06T01:57:02.319Z,5.40
2018-07-06T01:58:02.278Z,5.20
2018-07-06T01:59:02.265Z,5.30
2018-07-06T02:00:02.200Z,5.50
2018-07-06T02:01:02.156Z,6.10
2018-07-06T02:02:02.119Z,5.10
2018-07-06T02:03:02.077Z,5.40
2018-07-06T02:04:02.036Z,5.20
2018-07-06T02:05:01.999Z,6.00
2018-07-06T02:06:01.950Z,5.80
2018-07-06T02:07:01.909Z,5.10
2018-07-06T02:08:01.865Z,5.20
2018-07-06T02:09:01.836Z,5.60
2018-07-06T02:10:01.791Z,5.90
2018-07-06T02:11:01.744Z,5.50
2018-07-06T02:12:01.698Z,5.80
2018-07-06T02:13:01.659Z,5.90
2018-07-06T02:14:01.618Z,5.50
2018-07-06T02:15:01.579Z,5.50
2018-07-06T02:16:01.544Z,5.70
2018-07-06T02:17:01.492Z,5.60
2018-07-06T02:18:01.455Z,5.30
2018-07-06T02:19:01.414Z,5.70
2018-07-06T02:20:01.369Z,5.90
2018-07-06T02:21:01.331Z,5.70
2018-07-06T02:22:01.291Z,6.80
2018-07-06T02:23:01.243Z,6.70
2018-07-06T02:24:01.204Z,6.00
2018-07-06T02:25:01.170Z,5.80
2018-07-06T02:26:01.126Z,5.60
2018-07-06T02:27:01.079Z,6.00
2018-07-06T02:28:01.041Z,5.60
2018-07-06T02:29:00.997Z,5.70
2018-07-06T02:30:00.959Z,5.60
2018-07-06T02:31:00.916Z,6.00
2018-07-06T02:32:00.878Z,6.10
2018-07-06T02:33:00.834Z,5.90
2018-07-06T02:34:00.791Z,5.90
2018-07-06T02:35:00.758Z,6.00
2018-07-06T02:36:00.708Z,5.90
2018-07-06T02:37:00.670Z,5.70
2018-07-06T02:38:00.626Z,7.30
2018-07-06T02:39:00.585Z,6.00
2018-07-06T02:40:00.547Z,6.30
2018-07-06T02:41:00.505Z,6.00
2018-07-06T02:42:00.472Z,6.70
2018-07-06T02:43:00.416Z,6.00
2018-07-06T02:44:00.376Z,5.90
2018-07-06T02:45:00.338Z,6.30
2018-07-06T02:46:00.294Z,5.90
2018-07-06T02:47:00.251Z,5.80
2018-07-06T02:48:00.209Z,6.30
2018-07-06T02:49:00.170Z,5.90
2018-07-06T02:50:00.130Z,7.80
2018-07-06T02:51:00.084Z,6.50
2018-07-06T02:52:00.048Z,6.00
2018-07-06T02:53:00.010Z,6.30
2018-07-06T02:53:59.963Z,5.90
2018-07-06T02:54:59.939Z,5.90
2018-07-06T02:55:59.883Z,6.20
2018-07-06T02:56:59.838Z,7.50
2018-07-06T02:57:59.800Z,5.90
2018-07-06T02:58:59.753Z,6.40
2018-07-06T02:59:59.716Z,6.40
2018-07-06T03:00:59.672Z,7.60
2018-07-06T03:01:59.638Z,6.00
2018-07-06T03:02:59.590Z,6.20
2018-07-06T03:03:59.547Z,7.20
2018-07-06T03:04:59.515Z,5.90
2018-07-06T03:05:59.475Z,5.70
2018-07-06T03:06:59.421Z,5.90
2018-07-06T03:07:59.385Z,6.70
2018-07-06T03:08:59.338Z,6.10
2018-07-06T03:09:59.299Z,7.20
2018-07-06T03:10:59.256Z,6.50
2018-07-06T03:11:59.218Z,6.20
2018-07-06T03:12:59.170Z,6.80
2018-07-06T03:13:59.130Z,5.80
2018-07-06T03:14:59.086Z,6.30
2018-07-06T03:15:59.050Z,6.00
2018-07-06T03:16:59.005Z,6.80
2018-07-06T03:17:58.965Z,5.90
2018-07-06T03:18:58.923Z,6.20
2018-07-06T03:19:58.877Z,6.90
2018-07-06T03:20:58.836Z,6.70
2018-07-06T03:21:58.796Z,8.10
2018-07-06T03:22:58.754Z,6.60
2018-07-06T03:23:58.717Z,7.30
2018-07-06T03:24:58.670Z,6.80
2018-07-06T03:25:58.628Z,6.70
2018-07-06T03:26:58.585Z,8.20
2018-07-06T03:27:58.570Z,7.00
2018-07-06T03:28:58.505Z,6.20
2018-07-06T03:29:58.463Z,6.70
2018-07-06T03:30:58.418Z,6.10
2018-07-06T03:31:58.376Z,6.60
2018-07-06T03:32:58.337Z,6.60
2018-07-06T03:33:58.323Z,6.40
2018-07-06T03:34:58.259Z,7.60
2018-07-06T03:35:58.213Z,7.80
2018-07-06T03:36:58.177Z,6.50
2018-07-06T03:37:58.126Z,7.50
2018-07-06T03:38:58.086Z,6.60
2018-07-06T03:39:58.044Z,6.20
2018-07-06T03:40:57.999Z,6.50
2018-07-06T03:41:57.960Z,8.20
2018-07-06T03:42:57.918Z,6.50
2018-07-06T03:43:57.874Z,7.00
2018-07-06T03:44:57.835Z,7.00
2018-07-06T03:45:57.791Z,6.80
2018-07-06T03:46:57.750Z,7.90
2018-07-06T03:47:57.730Z,7.10
2018-07-06T03:48:57.666Z,6.30
2018-07-06T03:49:57.624Z,7.50
2018-07-06T03:50:57.585Z,8.70
2018-07-06T03:51:57.544Z,9.60
2018-07-06T03:52:57.498Z,6.60
2018-07-06T03:53:57.456Z,7.50
2018-07-06T03:54:57.456Z,7.70
2018-07-06T03:55:57.373Z,8.20
2018-07-06T03:56:57.340Z,6.80
2018-07-06T03:57:57.289Z,7.50
2018-07-06T03:58:57.247Z,7.40
2018-07-06T03:59:57.205Z,8.60
2018-07-06T04:00:57.171Z,8.70
2018-07-06T04:01:57.125Z,6.90
2018-07-06T04:02:57.080Z,8.40
2018-07-06T04:03:57.038Z,8.60
2018-07-06T04:04:56.998Z,6.90
2018-07-06T04:05:56.956Z,6.90
2018-07-06T04:06:56.916Z,7.60
2018-07-06T04:07:56.872Z,7.60
2018-07-06T04:08:56.835Z,8.90
2018-07-06T04:09:56.791Z,8.70
2018-07-06T04:10:56.744Z,7.70
2018-07-06T04:11:56.707Z,9.40
2018-07-06T04:12:56.661Z,7.80
2018-07-06T04:13:56.620Z,7.70
2018-07-06T04:14:56.584Z,8.70
2018-07-06T04:15:56.607Z,7.30
2018-07-06T04:16:56.495Z,6.90
2018-07-06T04:17:56.452Z,7.70
2018-07-06T04:18:56.410Z,8.50
2018-07-06T04:19:56.371Z,7.70
2018-07-06T04:20:56.329Z,8.00
2018-07-06T04:21:56.286Z,7.90
2018-07-06T04:22:56.246Z,7.90
2018-07-06T04:23:56.204Z,7.90
2018-07-06T04:24:56.165Z,8.30
2018-07-06T04:25:56.132Z,7.90
2018-07-06T04:26:56.088Z,8.90
2018-07-06T04:27:56.037Z,7.60
2018-07-06T04:28:55.997Z,8.30
2018-07-06T04:29:55.952Z,7.10
2018-07-06T04:30:55.910Z,8.30
2018-07-06T04:31:55.875Z,7.60
2018-07-06T04:32:55.828Z,7.50
2018-07-06T04:33:55.786Z,7.90
2018-07-06T04:34:40.033Z,5.90
2018-07-06T04:35:39.999Z,7.40
2018-07-06T04:36:39.952Z,7.10
2018-07-06T04:37:39.911Z,7.70
2018-07-06T04:38:39.889Z,7.90
2018-07-06T04:39:39.832Z,7.60
2018-07-06T04:40:39.789Z,7.90
2018-07-06T04:41:39.740Z,7.90
2018-07-06T04:42:39.699Z,7.40
2018-07-06T04:43:39.658Z,7.10
2018-07-06T04:44:39.615Z,9.10
2018-07-06T04:45:39.575Z,8.10
2018-07-06T04:46:39.537Z,7.50
2018-07-06T04:47:39.491Z,8.30
2018-07-06T04:48:39.451Z,8.20
2018-07-06T04:49:39.408Z,7.80
2018-07-06T04:50:39.370Z,8.20
2018-07-06T04:51:39.325Z,8.30
2018-07-06T04:52:39.283Z,8.20
2018-07-06T04:53:39.244Z,9.50
2018-07-06T04:54:39.200Z,8.30
2018-07-06T04:55:39.157Z,9.30
2018-07-06T04:56:39.118Z,9.10
2018-07-06T04:57:39.081Z,8.70
2018-07-06T04:58:39.037Z,9.30
2018-07-06T04:59:38.992Z,9.10
2018-07-06T05:00:38.953Z,9.70
2018-07-06T05:01:38.911Z,9.60
2018-07-06T05:02:38.871Z,11.20
2018-07-06T05:03:38.827Z,12.50
2018-07-06T05:04:38.789Z,11.10
2018-07-06T05:05:38.745Z,12.40
2018-07-06T05:06:38.706Z,11.80
2018-07-06T05:07:38.692Z,12.20
2018-07-06T05:08:38.620Z,11.60
2018-07-06T05:09:38.577Z,12.30
2018-07-06T05:10:38.536Z,11.60
2018-07-06T05:11:38.497Z,11.40
2018-07-06T05:12:38.457Z,13.10
2018-07-06T05:13:38.415Z,12.30
2018-07-06T05:14:38.372Z,13.50
2018-07-06T05:15:38.331Z,11.80
2018-07-06T05:16:38.310Z,11.50
2018-07-06T05:17:38.250Z,12.60
2018-07-06T05:18:38.205Z,14.30
2018-07-06T05:19:38.166Z,13.50
2018-07-06T05:20:38.125Z,12.20
2018-07-06T05:21:38.084Z,12.60
2018-07-06T05:22:38.077Z,12.80
2018-07-06T05:23:38.010Z,13.10
2018-07-06T05:24:37.960Z,12.60
2018-07-06T05:25:37.922Z,11.80
2018-07-06T05:26:37.878Z,14.10
2018-07-06T05:27:37.836Z,12.10
2018-07-06T05:28:37.798Z,12.20
2018-07-06T05:29:37.758Z,13.40
2018-07-06T05:30:37.715Z,13.40
2018-07-06T05:31:37.674Z,11.70
2018-07-06T05:32:37.629Z,13.80
2018-07-06T05:33:37.591Z,13.50
2018-07-06T05:34:37.556Z,12.80
2018-07-06T05:35:37.509Z,15.10
2018-07-06T05:36:37.471Z,13.60
2018-07-06T05:37:37.426Z,11.60
2018-07-06T05:38:37.386Z,12.40
2018-07-06T05:39:37.345Z,12.80
2018-07-06T05:40:37.308Z,12.60
2018-07-06T05:41:37.261Z,12.70
2018-07-06T05:42:37.220Z,15.70
2018-07-06T05:43:37.180Z,13.30
2018-07-06T05:44:37.138Z,12.50
2018-07-06T05:45:37.097Z,12.00
2018-07-06T05:46:37.059Z,12.10
2018-07-06T05:47:37.016Z,14.40
2018-07-06T05:48:36.973Z,13.80
2018-07-06T05:49:36.935Z,12.70
2018-07-06T05:50:36.892Z,12.70
2018-07-06T05:51:36.853Z,12.90
2018-07-06T05:52:36.816Z,12.20
2018-07-06T05:53:36.769Z,13.20
2018-07-06T05:54:36.734Z,12.50
2018-07-06T05:55:36.689Z,15.40
2018-07-06T05:56:36.647Z,14.10
2018-07-06T05:57:36.609Z,17.70
2018-07-06T05:58:36.571Z,12.70
2018-07-06T05:59:36.526Z,13.40
2018-07-06T06:00:36.487Z,16.00
2018-07-06T06:01:36.444Z,13.50
2018-07-06T06:02:36.403Z,14.60
2018-07-06T06:03:36.362Z,13.10
2018-07-06T06:04:36.367Z,16.10
2018-07-06T06:05:36.281Z,14.40
2018-07-06T06:06:36.241Z,15.40
2018-07-06T06:07:36.200Z,14.00
2018-07-06T06:08:36.156Z,15.20
2018-07-06T06:09:36.120Z,15.30
2018-07-06T06:10:36.082Z,15.60
2018-07-06T06:11:36.036Z,14.70
2018-07-06T06:12:35.995Z,16.20
2018-07-06T06:13:35.954Z,14.80
2018-07-06T06:14:35.914Z,14.50
2018-07-06T06:15:35.873Z,14.90
2018-07-06T06:16:35.831Z,15.10
2018-07-06T06:17:35.791Z,13.70
2018-07-06T06:18:35.793Z,15.00
2018-07-06T06:19:35.709Z,16.80
2018-07-06T06:20:35.672Z,14.40
2018-07-06T06:21:35.628Z,13.60
2018-07-06T06:22:35.586Z,14.80
2018-07-06T06:23:35.548Z,15.40
2018-07-06T06:24:35.506Z,15.90
2018-07-06T06:25:35.466Z,13.70
2018-07-06T06:26:35.424Z,14.70
2018-07-06T06:27:35.385Z,14.10
2018-07-06T06:28:35.347Z,14.30
2018-07-06T06:29:35.302Z,14.00
2018-07-06T06:30:35.262Z,13.70
2018-07-06T06:31:35.222Z,13.80
2018-07-06T06:32:35.182Z,14.10
2018-07-06T06:33:35.255Z,15.10
2018-07-06T06:34:35.100Z,16.00
2018-07-06T06:35:35.060Z,13.50
2018-07-06T06:36:35.019Z,14.90
2018-07-06T06:37:34.978Z,15.40
2018-07-06T06:38:34.935Z,15.40
2018-07-06T06:39:34.902Z,15.60
2018-07-06T06:40:34.856Z,14.60
2018-07-06T06:41:34.817Z,15.10
2018-07-06T06:42:34.774Z,16.50
2018-07-06T06:43:34.736Z,17.00
2018-07-06T06:44:34.691Z,15.30
2018-07-06T06:45:34.655Z,13.50
2018-07-06T06:46:34.658Z,14.50
2018-07-06T06:47:34.571Z,13.80
2018-07-06T06:48:34.531Z,14.70
2018-07-06T06:49:34.491Z,15.10
2018-07-06T06:50:34.449Z,13.00
2018-07-06T06:51:34.412Z,14.40
2018-07-06T06:52:34.367Z,13.70
2018-07-06T06:53:34.327Z,14.60
2018-07-06T06:54:34.286Z,15.20
2018-07-06T06:55:34.249Z,13.30
2018-07-06T06:56:34.204Z,14.50
2018-07-06T06:57:34.165Z,14.00
2018-07-06T06:58:34.126Z,15.90
2018-07-06T06:59:34.087Z,14.70
2018-07-06T07:00:34.043Z,13.90
2018-07-06T07:01:34.005Z,14.40
2018-07-06T07:02:33.962Z,15.00
2018-07-06T07:03:33.924Z,14.10
2018-07-06T07:04:33.883Z,15.80
2018-07-06T07:05:33.844Z,13.90
2018-07-06T07:06:33.803Z,13.90
2018-07-06T07:07:33.855Z,17.30
2018-07-06T07:08:33.723Z,12.90
2018-07-06T07:09:33.686Z,13.30
2018-07-06T07:10:33.642Z,13.60
2018-07-06T07:11:33.600Z,13.10
2018-07-06T07:12:33.559Z,12.70
2018-07-06T07:13:33.521Z,14.80
2018-07-06T07:14:33.480Z,14.70
2018-07-06T07:15:33.443Z,13.60
2018-07-06T07:16:33.400Z,13.80
2018-07-06T07:17:33.359Z,13.60
2018-07-06T07:18:33.318Z,13.40
2018-07-06T07:19:33.282Z,13.30
2018-07-06T07:20:33.239Z,13.00
2018-07-06T07:21:33.198Z,14.10
2018-07-06T07:22:33.159Z,12.80
2018-07-06T07:23:33.121Z,12.60
2018-07-06T07:24:33.078Z,12.30
2018-07-06T07:25:33.041Z,14.10
2018-07-06T07:26:33.149Z,11.60
2018-07-06T07:27:32.961Z,11.40
2018-07-06T07:28:32.920Z,12.50
2018-07-06T07:29:32.879Z,12.80
2018-07-06T07:30:32.837Z,13.50
2018-07-06T07:31:32.800Z,13.30
2018-07-06T07:32:32.759Z,14.80
2018-07-06T07:33:32.723Z,12.10
2018-07-06T07:34:32.677Z,12.00
2018-07-06T07:35:32.643Z,11.90
2018-07-06T07:36:32.597Z,11.90
2018-07-06T07:37:32.558Z,12.90
2018-07-06T07:38:32.521Z,14.10
2018-07-06T07:39:32.477Z,12.90
2018-07-06T07:40:32.440Z,12.90
2018-07-06T07:41:32.400Z,12.30
2018-07-06T07:42:32.359Z,15.80
2018-07-06T07:43:32.321Z,13.70
2018-07-06T07:44:32.282Z,13.10
2018-07-06T07:45:32.238Z,12.70
2018-07-06T07:46:32.322Z,13.00
2018-07-06T07:47:32.159Z,13.30
2018-07-06T07:48:32.126Z,12.20
2018-07-06T07:49:32.078Z,15.80
2018-07-06T07:50:32.039Z,13.00
2018-07-06T07:51:32.000Z,14.60
2018-07-06T07:52:31.961Z,13.30
2018-07-06T07:53:31.919Z,11.50
2018-07-06T07:54:31.897Z,12.10
2018-07-06T07:55:31.847Z,12.60
2018-07-06T07:56:31.798Z,14.10
2018-07-06T07:57:31.761Z,13.40
2018-07-06T07:58:31.721Z,12.40
2018-07-06T07:59:31.682Z,12.50
2018-07-06T08:00:31.708Z,12.40
2018-07-06T08:01:31.627Z,13.10
2018-07-06T08:02:31.561Z,11.30
2018-07-06T08:03:31.520Z,12.20
2018-07-06T08:04:31.483Z,13.00
2018-07-06T08:05:31.440Z,14.80
2018-07-06T08:06:31.414Z,10.90
2018-07-06T08:07:31.363Z,12.00
2018-07-06T08:08:31.321Z,13.90
2018-07-06T08:09:31.281Z,11.40
2018-07-06T08:10:31.242Z,11.30
2018-07-06T08:11:35.445Z,13.30
2018-07-06T08:12:31.171Z,12.40
2018-07-06T08:13:31.125Z,11.50
2018-07-06T08:14:31.149Z,11.60
2018-07-06T08:15:31.048Z,10.60
2018-07-06T08:16:31.005Z,12.00
2018-07-06T08:17:30.964Z,11.30
2018-07-06T08:18:30.938Z,12.20
2018-07-06T08:19:30.889Z,11.70
2018-07-06T08:20:30.848Z,12.20
2018-07-06T08:21:30.864Z,11.90
2018-07-06T08:22:30.768Z,10.20
2018-07-06T08:23:30.736Z,13.10
2018-07-06T08:24:30.689Z,11.40
2018-07-06T08:25:30.685Z,14.10
2018-07-06T08:26:30.615Z,10.90
2018-07-06T08:27:33.181Z,10.30
2018-07-06T08:28:30.533Z,10.40
2018-07-06T08:29:30.496Z,9.70
2018-07-06T08:30:30.460Z,13.30
2018-07-06T08:31:30.436Z,13.30
2018-07-06T08:32:30.380Z,12.20
2018-07-06T08:33:30.344Z,13.40
2018-07-06T08:34:30.301Z,12.20
2018-07-06T08:35:30.258Z,12.50
2018-07-06T08:36:30.260Z,12.80
2018-07-06T08:37:30.180Z,12.50
2018-07-06T08:38:30.141Z,12.20
2018-07-06T08:39:30.157Z,12.80
2018-07-06T08:40:30.063Z,12.10
2018-07-06T08:41:30.025Z,11.60
2018-07-06T08:42:29.985Z,11.40
2018-07-06T08:43:29.952Z,12.50
2018-07-06T08:44:29.907Z,12.40
2018-07-06T08:45:29.871Z,11.30
2018-07-06T08:46:29.836Z,11.30
2018-07-06T08:47:29.793Z,11.60
2018-07-06T08:48:29.754Z,13.60
2018-07-06T08:49:29.715Z,10.10
2018-07-06T08:50:29.790Z,14.30
2018-07-06T08:51:29.642Z,11.00
2018-07-06T08:52:29.600Z,10.90
2018-07-06T08:53:29.563Z,13.00
2018-07-06T08:54:29.528Z,10.40
2018-07-06T08:55:29.488Z,9.60
2018-07-06T08:56:29.450Z,12.50
2018-07-06T08:57:29.409Z,10.60
2018-07-06T08:58:29.469Z,11.10
2018-07-06T08:59:29.337Z,11.00
2018-07-06T09:00:29.299Z,11.70
2018-07-06T09:01:29.259Z,11.70
2018-07-06T09:02:29.222Z,10.80
2018-07-06T09:03:29.187Z,11.40
2018-07-06T09:04:29.256Z,10.30
2018-07-06T09:05:29.103Z,10.40
2018-07-06T09:06:29.071Z,9.80
2018-07-06T09:07:29.068Z,9.60
2018-07-06T09:08:28.989Z,9.60
2018-07-06T09:09:29.062Z,9.90
2018-07-06T09:10:28.915Z,11.00
2018-07-06T09:11:28.877Z,10.90
2018-07-06T09:12:28.838Z,10.40
2018-07-06T09:13:28.802Z,11.20
2018-07-06T09:14:28.766Z,10.70
2018-07-06T09:15:28.727Z,10.60
2018-07-06T09:16:28.687Z,9.70
2018-07-06T09:17:28.653Z,12.30
2018-07-06T09:18:28.614Z,9.60
2018-07-06T09:19:28.632Z,9.90
2018-07-06T09:20:28.537Z,12.10
2018-07-06T09:21:28.514Z,11.30
2018-07-06T09:22:28.463Z,10.40
2018-07-06T09:23:28.428Z,10.00
2018-07-06T09:24:28.387Z,9.90
2018-07-06T09:25:28.501Z,10.70
2018-07-06T09:26:28.363Z,10.40
2018-07-06T09:27:28.282Z,11.60
2018-07-06T09:28:33.485Z,11.90
2018-07-06T09:29:28.200Z,10.90
2018-07-06T09:30:28.162Z,12.10
2018-07-06T09:31:28.126Z,10.10
2018-07-06T09:32:28.084Z,9.30
2018-07-06T09:33:28.049Z,9.10
2018-07-06T09:34:28.011Z,8.90
2018-07-06T09:35:27.973Z,8.90
2018-07-06T09:36:27.937Z,11.00
2018-07-06T09:37:27.900Z,9.70
2018-07-06T09:38:27.862Z,10.50
2018-07-06T09:39:27.823Z,10.60
2018-07-06T09:40:27.787Z,10.00
2018-07-06T09:41:27.751Z,11.80
2018-07-06T09:42:27.714Z,9.30
2018-07-06T09:43:27.732Z,9.20
2018-07-06T09:44:27.639Z,12.50
2018-07-06T09:45:27.607Z,10.40
2018-07-06T09:46:27.565Z,11.60
2018-07-06T09:47:27.533Z,9.80
2018-07-06T09:48:27.491Z,12.00
2018-07-06T09:49:27.453Z,11.30
2018-07-06T09:50:27.416Z,9.80
2018-07-06T09:51:27.379Z,11.50
2018-07-06T09:52:27.340Z,10.40
2018-07-06T09:53:27.302Z,11.10
2018-07-06T09:54:27.267Z,8.90
2018-07-06T09:55:27.228Z,9.40
2018-07-06T09:56:27.197Z,9.10
2018-07-06T09:57:27.156Z,8.50
2018-07-06T09:58:27.121Z,9.20
2018-07-06T09:59:27.081Z,9.80
2018-07-06T10:00:27.046Z,9.10
2018-07-06T10:01:27.009Z,8.30
2018-07-06T10:02:26.975Z,8.50
2018-07-06T10:03:26.936Z,8.00
2018-07-06T10:04:26.954Z,9.50
2018-07-06T10:05:26.862Z,7.80
2018-07-06T10:06:26.830Z,10.60
2018-07-06T10:07:26.789Z,10.00
2018-07-06T10:08:26.754Z,8.50
2018-07-06T10:09:26.716Z,11.10
2018-07-06T10:10:26.681Z,9.80
2018-07-06T10:11:26.647Z,8.40
2018-07-06T10:12:26.639Z,9.90
2018-07-06T10:13:26.573Z,11.60
2018-07-06T10:14:26.535Z,9.70
2018-07-06T10:15:26.498Z,11.00
2018-07-06T10:16:26.460Z,8.80
2018-07-06T10:17:26.426Z,10.40
2018-07-06T10:18:26.389Z,10.00
2018-07-06T10:19:26.373Z,8.00
2018-07-06T10:20:26.316Z,9.90
2018-07-06T10:21:26.283Z,8.70
2018-07-06T10:22:26.244Z,8.90
2018-07-06T10:23:26.210Z,7.80
2018-07-06T10:24:26.172Z,9.50
2018-07-06T10:25:26.135Z,8.20
2018-07-06T10:26:26.105Z,9.90
2018-07-06T10:27:26.119Z,9.10
2018-07-06T10:28:26.029Z,9.80
2018-07-06T10:29:25.993Z,8.70
2018-07-06T10:30:25.960Z,8.50
2018-07-06T10:31:25.924Z,10.70
2018-07-06T10:32:25.888Z,10.20
2018-07-06T10:33:25.876Z,7.80
2018-07-06T10:34:25.838Z,10.20
2018-07-06T10:35:25.779Z,13.30
2018-07-06T10:36:25.742Z,9.20
2018-07-06T10:37:25.706Z,11.80
2018-07-06T10:38:25.701Z,10.60
2018-07-06T10:39:25.649Z,10.40
2018-07-06T10:40:25.601Z,9.50
2018-07-06T10:41:25.565Z,9.10
2018-07-06T10:42:25.539Z,9.60
2018-07-06T10:43:25.499Z,9.80
2018-07-06T10:44:25.474Z,9.40
2018-07-06T10:45:25.441Z,10.40
2018-07-06T10:46:25.387Z,9.50
2018-07-06T10:47:25.357Z,9.70
2018-07-06T10:48:25.316Z,10.00
2018-07-06T10:49:25.284Z,7.60
2018-07-06T10:50:25.247Z,7.20
2018-07-06T10:51:25.211Z,7.20
2018-07-06T10:52:25.176Z,6.50
2018-07-06T10:53:25.139Z,7.30
2018-07-06T10:54:25.111Z,9.40
2018-07-06T10:55:25.071Z,7.50
2018-07-06T10:56:25.033Z,9.30
2018-07-06T10:57:24.997Z,7.50
2018-07-06T10:58:24.962Z,8.60
2018-07-06T10:59:24.966Z,8.90
2018-07-06T11:00:24.892Z,11.10
2018-07-06T11:01:24.859Z,9.30
2018-07-06T11:02:24.820Z,8.90
2018-07-06T11:03:24.788Z,9.60
2018-07-06T11:04:24.748Z,7.90
2018-07-06T11:05:24.717Z,8.90
2018-07-06T11:06:24.723Z,7.80
2018-07-06T11:07:24.650Z,7.50
2018-07-06T11:08:24.606Z,9.30
2018-07-06T11:09:24.571Z,7.10
2018-07-06T11:10:24.541Z,8.80
2018-07-06T11:11:24.515Z,7.60
2018-07-06T11:12:24.470Z,9.20
2018-07-06T11:13:24.433Z,8.30
2018-07-06T11:14:24.398Z,6.80
2018-07-06T11:15:24.359Z,6.50
2018-07-06T11:16:24.322Z,6.60
2018-07-06T11:17:24.290Z,10.10
2018-07-06T11:18:24.253Z,10.20
2018-07-06T11:19:24.218Z,8.50
2018-07-06T11:20:24.187Z,9.20
2018-07-06T11:21:24.147Z,9.20
2018-07-06T11:22:24.117Z,8.40
2018-07-06T11:23:24.083Z,9.40
2018-07-06T11:24:24.044Z,7.10
2018-07-06T11:25:24.172Z,8.40
2018-07-06T11:27:23.938Z,8.90
2018-07-06T11:28:23.907Z,8.10
2018-07-06T11:29:23.871Z,6.30
2018-07-06T11:30:23.836Z,6.10
2018-07-06T11:31:23.800Z,7.80
2018-07-06T11:32:23.762Z,9.30
2018-07-06T11:33:23.733Z,8.20
2018-07-06T11:34:23.709Z,8.90
2018-07-06T11:35:23.665Z,9.00
2018-07-06T11:36:23.651Z,9.90
2018-07-06T11:37:23.587Z,6.70
2018-07-06T11:38:23.561Z,8.10
2018-07-06T11:39:23.519Z,6.90
2018-07-06T11:40:23.484Z,7.30
2018-07-06T11:41:23.451Z,8.20
2018-07-06T11:42:23.414Z,6.70
2018-07-06T11:43:23.381Z,6.50
2018-07-06T11:44:23.373Z,7.10
2018-07-06T11:45:23.314Z,6.80
2018-07-06T11:46:23.281Z,7.50
2018-07-06T11:47:23.240Z,6.70
2018-07-06T11:48:23.205Z,7.10
2018-07-06T11:49:23.174Z,5.90
2018-07-06T11:50:23.141Z,7.90
2018-07-06T11:51:23.104Z,6.00
2018-07-06T11:52:23.070Z,8.10
2018-07-06T11:53:23.040Z,6.40
2018-07-06T11:54:23.004Z,6.80
2018-07-06T11:55:22.966Z,7.20
2018-07-06T11:56:22.973Z,10.20
2018-07-06T11:57:22.900Z,7.70
2018-07-06T11:58:22.882Z,9.60
2018-07-06T11:59:22.830Z,7.00
2018-07-06T12:00:22.794Z,8.10
2018-07-06T12:01:22.762Z,7.90
2018-07-06T12:02:22.727Z,6.20
2018-07-06T12:04:22.811Z,6.70
2018-07-06T12:05:22.623Z,6.30
2018-07-06T12:06:22.591Z,7.50
2018-07-06T12:07:22.554Z,6.20
2018-07-06T12:08:22.521Z,6.80
2018-07-06T12:09:22.491Z,5.50
2018-07-06T12:10:22.454Z,6.00
2018-07-06T12:11:22.421Z,6.20
2018-07-06T12:12:22.386Z,5.70
2018-07-06T12:13:22.353Z,6.20
2018-07-06T12:14:22.318Z,7.20
2018-07-06T12:15:22.284Z,5.90
2018-07-06T12:16:22.250Z,6.30
2018-07-06T12:17:22.217Z,5.50
2018-07-06T12:18:22.186Z,6.70
2018-07-06T12:19:22.152Z,5.60
2018-07-06T12:20:22.115Z,6.00
2018-07-06T12:21:22.150Z,5.80
2018-07-06T12:22:22.051Z,9.80
2018-07-06T12:23:22.025Z,6.70
2018-07-06T12:24:21.986Z,5.40
2018-07-06T12:25:21.953Z,5.20
2018-07-06T12:26:21.918Z,7.70
2018-07-06T12:27:21.884Z,6.00
2018-07-06T12:28:21.855Z,5.80
2018-07-06T12:29:21.817Z,8.30
2018-07-06T12:30:21.786Z,7.30
2018-07-06T12:31:21.753Z,9.00
2018-07-06T12:32:21.734Z,5.60
2018-07-06T12:33:21.686Z,6.30
2018-07-06T12:34:21.660Z,6.20
2018-07-06T12:35:21.623Z,6.30
2018-07-06T12:36:21.584Z,4.90
2018-07-06T12:37:21.554Z,5.60
2018-07-06T12:38:21.523Z,5.50
2018-07-06T12:39:21.489Z,7.50
2018-07-06T12:40:21.455Z,5.40
2018-07-06T12:41:21.423Z,8.30
2018-07-06T12:42:21.395Z,5.40
2018-07-06T12:43:21.363Z,6.10
2018-07-06T12:44:21.323Z,5.20
2018-07-06T12:45:21.288Z,4.90
2018-07-06T12:46:21.257Z,4.90
2018-07-06T12:47:21.227Z,5.40
2018-07-06T12:48:21.192Z,5.90
2018-07-06T12:49:21.159Z,4.90
2018-07-06T12:50:21.129Z,4.70
2018-07-06T12:51:21.091Z,4.40
2018-07-06T12:52:21.060Z,4.70
2018-07-06T12:53:21.027Z,6.70
2018-07-06T12:54:20.993Z,5.10
2018-07-06T12:55:20.961Z,7.10
2018-07-06T12:56:20.925Z,7.30
2018-07-06T12:57:20.893Z,6.10
2018-07-06T12:58:20.950Z,6.40
2018-07-06T12:59:20.830Z,6.00
2018-07-06T13:00:20.791Z,4.90
2018-07-06T13:01:20.756Z,5.30
2018-07-06T13:02:20.723Z,4.90
2018-07-06T13:03:20.689Z,4.60
2018-07-06T13:04:20.657Z,5.80
2018-07-06T13:05:20.626Z,7.80
2018-07-06T13:06:20.592Z,5.20
2018-07-06T13:07:20.559Z,5.60
2018-07-06T13:08:20.528Z,4.50
2018-07-06T13:09:20.493Z,6.30